Time;durP1;ratioP1;P1;durP2;ratioP2;P2;SDS_P1;SDS_P2;PMS_P1;PMS_P2;Temp;Humidity;BMP_temperature;BMP_pressure;BME280_temperature;BME280_humidity;BME280_pressure;Samples;Min_cycle;Max_cycle;Signal;HPM_P1;HPM_P2
2021/08/31 00:00:09;;;;;;;0.62;0.62;;;16.00;99.90;;;;;;4368487;32;20562;-74
2021/08/31 00:02:34;;;;;;;0.62;0.62;;;16.00;99.90;;;;;;4369829;32;20179;-73
2021/08/31 00:05:00;;;;;;;0.47;0.47;;;16.00;99.90;;;;;;4368884;32;20066;-74
2021/08/31 00:07:25;;;;;;;0.50;0.50;;;16.00;99.90;;;;;;4369216;32;20142;-74
2021/08/31 00:09:51;;;;;;;0.60;0.60;;;16.00;99.90;;;;;;4374921;32;20083;-74
2021/08/31 00:12:16;;;;;;;0.65;0.65;;;16.10;99.90;;;;;;4383551;32;20139;-74
2021/08/31 00:14:42;;;;;;;2.00;0.75;;;16.10;99.90;;;;;;4384295;32;20059;-73
2021/08/31 00:17:08;;;;;;;0.73;0.73;;;16.10;99.90;;;;;;4386842;32;20484;-74
2021/08/31 00:19:34;;;;;;;0.40;0.40;;;16.00;99.90;;;;;;4379156;32;20067;-74
2021/08/31 00:21:59;;;;;;;0.62;0.62;;;16.00;99.90;;;;;;4370911;32;20096;-74
2021/08/31 00:24:25;;;;;;;0.47;0.47;;;16.00;99.90;;;;;;4370655;32;20075;-74
2021/08/31 00:26:50;;;;;;;0.45;0.45;;;16.00;99.90;;;;;;4381233;32;20065;-74
2021/08/31 00:29:16;;;;;;;0.55;0.50;;;16.00;99.90;;;;;;4385392;32;20512;-74
2021/08/31 00:31:41;;;;;;;7.87;1.20;;;15.90;99.90;;;;;;4385414;32;20083;-74
2021/08/31 00:34:07;;;;;;;1.95;1.20;;;15.90;99.90;;;;;;4385364;32;20066;-74
2021/08/31 00:36:32;;;;;;;1.15;0.90;;;16.00;99.90;;;;;;4386096;32;20519;-74
2021/08/31 00:38:58;;;;;;;2.20;0.77;;;15.90;99.90;;;;;;4386332;32;20070;-74
2021/08/31 00:41:25;;;;;;;0.40;0.40;;;15.80;99.90;;;;;;4386641;32;20078;-73
2021/08/31 00:43:51;;;;;;;1.23;1.12;;;15.80;99.90;;;;;;4385093;32;20075;-73
2021/08/31 00:46:17;;;;;;;1.45;0.85;;;15.80;99.90;;;;;;4385356;32;20118;-74
2021/08/31 00:48:43;;;;;;;0.50;0.50;;;15.80;99.90;;;;;;4386811;32;20543;-74
2021/08/31 00:51:10;;;;;;;1.90;1.23;;;15.80;99.90;;;;;;4386570;32;20492;-74
2021/08/31 00:53:37;;;;;;;0.50;0.50;;;15.90;99.90;;;;;;4385424;32;20452;-74
2021/08/31 00:56:04;;;;;;;2.25;1.37;;;15.90;99.90;;;;;;4379480;32;20074;-74
2021/08/31 00:58:31;;;;;;;1.37;0.80;;;15.80;99.90;;;;;;4370444;32;20078;-73
2021/08/31 01:00:58;;;;;;;0.50;0.50;;;15.80;99.90;;;;;;4371256;32;20075;-74
2021/08/31 01:03:24;;;;;;;9.52;0.98;;;15.80;99.90;;;;;;4371238;32;20079;-74
2021/08/31 01:05:50;;;;;;;0.68;0.65;;;15.80;99.90;;;;;;4370477;32;20140;-73
2021/08/31 01:08:15;;;;;;;4.28;0.95;;;15.70;99.90;;;;;;4369981;32;20066;-73
2021/08/31 01:10:41;;;;;;;3.92;1.50;;;15.70;99.90;;;;;;4383127;32;20503;-73
2021/08/31 01:13:07;;;;;;;0.93;0.68;;;15.70;99.90;;;;;;4385188;32;20066;-73
2021/08/31 01:15:32;;;;;;;0.52;0.52;;;15.70;99.90;;;;;;4384860;32;20074;-73
2021/08/31 01:18:14;;;;;;;0.60;0.60;;;15.80;99.90;;;;;;4385928;32;20086;-74
2021/08/31 01:20:41;;;;;;;0.47;0.47;;;15.80;99.90;;;;;;4371409;32;20067;-73
2021/08/31 01:23:06;;;;;;;0.52;0.52;;;15.80;99.90;;;;;;4370168;32;20070;-74
2021/08/31 01:25:32;;;;;;;0.45;0.45;;;15.80;99.90;;;;;;4371002;32;20074;-74
2021/08/31 01:27:57;;;;;;;0.37;0.37;;;15.80;99.90;;;;;;4384600;32;20554;-74
2021/08/31 01:30:23;;;;;;;0.98;0.75;;;15.80;99.90;;;;;;4385920;32;20077;-74
2021/08/31 01:32:48;;;;;;;0.47;0.47;;;15.80;99.90;;;;;;4385563;32;20082;-74
2021/08/31 01:35:14;;;;;;;0.68;0.68;;;15.80;99.90;;;;;;4385894;32;20493;-74
2021/08/31 01:37:39;;;;;;;1.48;1.08;;;15.80;99.90;;;;;;4384670;32;20581;-74
2021/08/31 01:40:05;;;;;;;1.05;0.73;;;15.70;99.90;;;;;;4385308;32;20067;-74
2021/08/31 01:42:31;;;;;;;1.60;0.60;;;15.70;99.90;;;;;;4385179;32;20067;-74
2021/08/31 01:44:56;;;;;;;2.90;0.90;;;15.70;99.90;;;;;;4384923;32;20136;-74
2021/08/31 01:47:22;;;;;;;0.65;0.65;;;15.70;99.90;;;;;;4384600;32;20413;-74
2021/08/31 01:49:47;;;;;;;1.85;1.00;;;15.70;99.90;;;;;;4385657;32;20063;-74
2021/08/31 01:52:13;;;;;;;0.37;0.37;;;15.70;99.90;;;;;;4384422;32;20074;-74
2021/08/31 01:54:38;;;;;;;3.05;1.33;;;15.70;99.90;;;;;;4383849;32;20130;-74
2021/08/31 01:57:04;;;;;;;0.73;0.57;;;15.60;99.90;;;;;;4374238;32;20078;-74
2021/08/31 01:59:29;;;;;;;1.85;0.60;;;15.70;99.90;;;;;;4369891;32;20066;-74
2021/08/31 02:01:54;;;;;;;2.35;1.17;;;15.70;99.90;;;;;;4369665;32;20070;-74
2021/08/31 02:04:20;;;;;;;0.70;0.70;;;15.60;99.90;;;;;;4369448;32;20087;-74
2021/08/31 02:06:46;;;;;;;0.98;0.70;;;15.60;99.90;;;;;;4370578;32;20448;-74
2021/08/31 02:09:11;;;;;;;0.98;0.77;;;15.70;99.90;;;;;;4372960;32;20094;-74
2021/08/31 02:11:37;;;;;;;0.80;0.40;;;15.70;99.90;;;;;;4384233;32;20078;-74
2021/08/31 02:14:02;;;;;;;22.10;2.47;;;15.70;99.90;;;;;;4384347;32;20090;-74
2021/08/31 02:16:28;;;;;;;0.50;0.50;;;15.70;99.90;;;;;;4384522;32;20062;-74
2021/08/31 02:18:53;;;;;;;0.50;0.50;;;15.70;99.90;;;;;;4381901;32;20401;-74
2021/08/31 02:21:18;;;;;;;0.50;0.50;;;15.60;99.90;;;;;;4369164;32;20067;-74
2021/08/31 02:23:44;;;;;;;0.68;0.57;;;15.60;99.90;;;;;;4369551;32;20125;-74
2021/08/31 02:26:09;;;;;;;1.35;0.55;;;15.70;99.90;;;;;;4374792;32;20083;-74
2021/08/31 02:28:35;;;;;;;2.17;0.70;;;15.70;99.90;;;;;;4384140;32;20429;-74
2021/08/31 02:31:00;;;;;;;0.40;0.40;;;15.70;99.90;;;;;;4384028;32;20079;-74
2021/08/31 02:33:26;;;;;;;3.30;0.77;;;15.70;99.90;;;;;;4384930;32;20085;-74
2021/08/31 02:35:51;;;;;;;1.17;0.62;;;15.70;99.90;;;;;;4384075;32;20089;-74
2021/08/31 02:38:17;;;;;;;0.82;0.82;;;15.70;99.90;;;;;;4383954;32;20146;-74
2021/08/31 02:40:42;;;;;;;1.83;1.42;;;15.60;99.90;;;;;;4384613;32;20062;-74
2021/08/31 02:43:08;;;;;;;0.77;0.77;;;15.70;99.90;;;;;;4384953;32;20097;-73
2021/08/31 02:45:33;;;;;;;3.10;0.62;;;15.60;99.90;;;;;;4383790;32;20083;-74
2021/08/31 02:47:59;;;;;;;6.95;0.50;;;15.50;99.90;;;;;;4384464;32;20066;-74
2021/08/31 02:50:24;;;;;;;0.43;0.43;;;15.50;99.90;;;;;;4385233;32;20063;-74
2021/08/31 02:52:50;;;;;;;1.90;0.70;;;15.50;99.90;;;;;;4383912;32;20423;-74
2021/08/31 02:55:15;;;;;;;0.45;0.45;;;15.40;99.90;;;;;;4383214;32;20512;-74
2021/08/31 02:57:41;;;;;;;0.50;0.50;;;15.40;99.90;;;;;;4368933;32;20082;-74
2021/08/31 03:00:09;;;;;;;0.50;0.50;;;15.40;99.90;;;;;;4369528;32;20067;-74
2021/08/31 03:02:34;;;;;;;0.50;0.50;;;15.30;99.90;;;;;;4383020;32;20433;-74
2021/08/31 03:05:00;;;;;;;17.95;1.25;;;15.30;99.90;;;;;;4383890;32;20124;-74
2021/08/31 03:07:25;;;;;;;7.00;1.40;;;15.40;99.90;;;;;;4383469;32;20512;-74
2021/08/31 03:09:51;;;;;;;0.37;0.37;;;15.40;99.90;;;;;;4384507;32;20076;-74
2021/08/31 03:12:17;;;;;;;0.45;0.45;;;15.40;99.90;;;;;;4384973;32;20113;-74
2021/08/31 03:14:43;;;;;;;5.07;0.60;;;15.50;99.90;;;;;;4383634;32;20437;-74
2021/08/31 03:17:08;;;;;;;0.57;0.57;;;15.40;99.90;;;;;;4384628;32;20070;-74
2021/08/31 03:19:34;;;;;;;3.58;1.20;;;15.40;99.90;;;;;;4383915;32;20062;-74
2021/08/31 03:22:01;;;;;;;0.85;0.73;;;15.30;99.90;;;;;;4383620;32;20083;-74
2021/08/31 03:24:27;;;;;;;0.45;0.45;;;15.30;99.90;;;;;;4383717;32;20070;-74
2021/08/31 03:26:53;;;;;;;0.60;0.60;;;15.40;99.90;;;;;;4373390;32;20079;-74
2021/08/31 03:29:19;;;;;;;0.60;0.60;;;15.40;99.90;;;;;;4368982;32;20063;-74
2021/08/31 03:31:45;;;;;;;1.73;0.70;;;15.40;99.90;;;;;;4377668;32;20075;-74
2021/08/31 03:34:11;;;;;;;0.50;0.50;;;15.40;99.90;;;;;;4383146;32;20078;-74
2021/08/31 03:36:37;;;;;;;0.62;0.62;;;15.40;99.90;;;;;;4384386;32;20067;-74
2021/08/31 03:39:03;;;;;;;2.10;0.70;;;15.40;99.90;;;;;;4382349;32;20059;-74
2021/08/31 03:41:28;;;;;;;2.22;1.10;;;15.30;99.90;;;;;;4383021;32;20074;-74
2021/08/31 03:43:54;;;;;;;0.70;0.70;;;15.30;99.90;;;;;;4384302;32;20065;-74
2021/08/31 03:46:19;;;;;;;4.97;2.12;;;15.30;99.90;;;;;;4384181;32;20100;-74
2021/08/31 03:48:45;;;;;;;0.88;0.85;;;15.40;99.90;;;;;;4383950;32;20133;-74
2021/08/31 03:51:10;;;;;;;0.40;0.40;;;15.40;99.90;;;;;;4387154;32;20083;-74
2021/08/31 03:53:37;;;;;;;0.52;0.52;;;15.30;99.90;;;;;;4388911;32;20066;-74
2021/08/31 03:56:02;;;;;;;1.73;1.08;;;15.40;99.90;;;;;;4395675;32;20078;-74
2021/08/31 03:58:28;;;;;;;0.30;0.30;;;15.30;99.90;;;;;;4386008;32;20066;-74
2021/08/31 04:00:53;;;;;;;1.95;0.60;;;15.40;99.90;;;;;;4385730;32;20078;-74
2021/08/31 04:03:19;;;;;;;0.43;0.43;;;15.30;99.90;;;;;;4386538;32;20113;-74
2021/08/31 04:05:45;;;;;;;1.00;0.95;;;15.30;99.90;;;;;;4387047;32;20083;-74
2021/08/31 04:08:10;;;;;;;1.30;0.75;;;15.30;99.90;;;;;;4385962;32;20602;-74
2021/08/31 04:10:36;;;;;;;5.12;1.25;;;15.20;99.90;;;;;;4374963;32;20536;-74
2021/08/31 04:13:02;;;;;;;0.68;0.68;;;15.30;99.90;;;;;;4385363;32;20062;-74
2021/08/31 04:15:27;;;;;;;2.47;1.15;;;15.20;99.90;;;;;;4385605;32;20094;-74
2021/08/31 04:17:53;;;;;;;3.10;0.62;;;15.20;99.90;;;;;;4385878;32;20071;-74
2021/08/31 04:20:18;;;;;;;0.88;0.65;;;15.20;99.90;;;;;;4386024;32;20086;-74
2021/08/31 04:22:44;;;;;;;0.62;0.62;;;15.20;99.90;;;;;;4377072;32;20083;-74
2021/08/31 04:25:10;;;;;;;0.45;0.45;;;15.20;99.90;;;;;;4383028;32;20113;-74
2021/08/31 04:27:35;;;;;;;5.78;1.37;;;15.30;99.90;;;;;;4381583;32;20063;-74
2021/08/31 04:30:01;;;;;;;2.03;0.77;;;15.30;99.90;;;;;;4370484;32;20513;-74
2021/08/31 04:32:27;;;;;;;0.90;0.57;;;15.30;99.90;;;;;;4370415;32;20126;-74
2021/08/31 04:34:55;;;;;;;0.65;0.65;;;15.20;99.90;;;;;;4375345;32;20078;-74
2021/08/31 04:37:21;;;;;;;1.12;0.50;;;15.30;99.90;;;;;;4385360;32;20066;-74
2021/08/31 04:39:47;;;;;;;0.52;0.52;;;15.30;99.90;;;;;;4385179;32;20420;-74
2021/08/31 04:42:12;;;;;;;5.12;1.20;;;15.20;99.90;;;;;;4385852;32;20607;-74
2021/08/31 04:44:38;;;;;;;0.40;0.40;;;15.30;99.90;;;;;;4384623;32;20082;-74
2021/08/31 04:47:03;;;;;;;0.80;0.70;;;15.20;99.90;;;;;;4385110;32;20113;-74
2021/08/31 04:49:29;;;;;;;0.45;0.45;;;15.20;99.90;;;;;;4385656;32;20078;-74
2021/08/31 04:51:54;;;;;;;0.70;0.70;;;15.20;99.90;;;;;;4385333;32;20429;-74
2021/08/31 04:54:21;;;;;;;1.30;0.77;;;15.20;99.90;;;;;;4381412;32;20074;-74
2021/08/31 04:56:46;;;;;;;0.73;0.68;;;15.20;99.90;;;;;;4384795;32;20099;-74
2021/08/31 04:59:12;;;;;;;4.30;1.48;;;15.20;99.90;;;;;;4383972;32;20070;-75
2021/08/31 05:01:37;;;;;;;2.72;1.30;;;15.20;99.90;;;;;;4375441;32;20433;-74
2021/08/31 05:04:03;;;;;;;1.15;0.95;;;15.20;99.90;;;;;;4374603;32;20087;-74
2021/08/31 05:06:28;;;;;;;0.40;0.40;;;15.20;99.90;;;;;;4380887;32;20397;-74
2021/08/31 05:08:54;;;;;;;1.62;0.82;;;15.30;99.90;;;;;;4382714;32;20517;-74
2021/08/31 05:11:20;;;;;;;0.57;0.57;;;15.30;99.90;;;;;;4378093;32;20061;-74
2021/08/31 05:13:45;;;;;;;1.58;0.90;;;15.30;99.90;;;;;;4379705;32;20074;-74
2021/08/31 05:16:13;;;;;;;0.62;0.62;;;15.20;99.90;;;;;;4382563;32;20074;-74
2021/08/31 05:18:39;;;;;;;1.92;0.88;;;15.20;99.90;;;;;;4365935;32;20113;-74
2021/08/31 05:21:05;;;;;;;0.50;0.50;;;15.20;99.90;;;;;;4373585;32;20096;-74
2021/08/31 05:23:32;;;;;;;1.60;0.70;;;15.20;99.90;;;;;;4375250;32;20750;-74
2021/08/31 05:25:58;;;;;;;0.55;0.55;;;15.30;99.90;;;;;;4383188;32;20114;-74
2021/08/31 05:28:24;;;;;;;0.45;0.45;;;15.20;99.90;;;;;;4383969;32;20483;-74
2021/08/31 05:30:49;;;;;;;0.70;0.70;;;15.10;99.90;;;;;;4368140;32;20151;-74
2021/08/31 05:33:15;;;;;;;0.40;0.40;;;15.20;99.90;;;;;;4364619;32;20082;-74
2021/08/31 05:35:40;;;;;;;0.70;0.70;;;15.20;99.90;;;;;;4377124;32;20139;-73
2021/08/31 05:38:06;;;;;;;0.60;0.60;;;15.20;99.90;;;;;;4377878;32;20066;-72
2021/08/31 05:40:31;;;;;;;0.77;0.68;;;15.20;99.90;;;;;;4373574;32;20074;-73
2021/08/31 05:42:57;;;;;;;0.37;0.37;;;15.10;99.90;;;;;;4376819;32;20179;-73
2021/08/31 05:45:23;;;;;;;0.70;0.68;;;15.10;99.90;;;;;;4367325;32;20469;-73
2021/08/31 05:47:48;;;;;;;3.25;0.88;;;15.10;99.90;;;;;;4369634;32;20499;-74
2021/08/31 05:50:14;;;;;;;0.68;0.68;;;15.10;99.90;;;;;;4376464;32;20379;-73
2021/08/31 05:52:39;;;;;;;0.50;0.50;;;15.20;99.90;;;;;;4375342;32;20086;-73
2021/08/31 05:55:05;;;;;;;0.50;0.50;;;15.20;99.90;;;;;;4375681;32;20455;-74
2021/08/31 05:57:31;;;;;;;0.73;0.73;;;15.20;99.90;;;;;;4368926;32;20157;-73
2021/08/31 05:59:56;;;;;;;0.60;0.60;;;15.20;99.90;;;;;;4368726;32;20471;-73
2021/08/31 06:02:22;;;;;;;0.43;0.43;;;15.20;99.90;;;;;;4366963;32;20074;-73
2021/08/31 06:04:47;;;;;;;0.65;0.60;;;15.20;99.90;;;;;;4373558;32;20090;-73
2021/08/31 06:07:13;;;;;;;1.40;0.90;;;15.20;99.90;;;;;;4370260;32;20417;-73
2021/08/31 06:09:41;;;;;;;0.55;0.55;;;15.20;99.90;;;;;;4380671;32;20070;-73
2021/08/31 06:12:08;;;;;;;0.57;0.57;;;15.30;99.90;;;;;;4373290;32;20066;-73
2021/08/31 06:14:34;;;;;;;0.75;0.60;;;15.30;99.90;;;;;;4375660;32;20665;-73
2021/08/31 06:17:01;;;;;;;12.43;2.55;;;15.30;99.90;;;;;;4372624;32;20087;-73
2021/08/31 06:19:26;;;;;;;0.85;0.77;;;15.30;99.90;;;;;;4372668;32;20413;-72
2021/08/31 06:21:52;;;;;;;0.57;0.57;;;15.30;99.90;;;;;;4377523;32;20079;-73
2021/08/31 06:24:17;;;;;;;0.55;0.55;;;15.30;99.90;;;;;;4372040;32;75012;-73
2021/08/31 06:26:43;;;;;;;0.82;0.80;;;15.30;99.90;;;;;;4372796;32;20097;-73
2021/08/31 06:29:08;;;;;;;0.40;0.40;;;15.30;99.90;;;;;;4373159;32;20059;-73
2021/08/31 06:31:34;;;;;;;0.60;0.60;;;15.30;99.90;;;;;;4369369;32;20071;-72
2021/08/31 06:33:59;;;;;;;0.47;0.47;;;15.30;99.90;;;;;;4367964;32;20071;-72
2021/08/31 06:36:25;;;;;;;2.50;0.50;;;15.40;99.90;;;;;;4363747;32;20074;-72
2021/08/31 06:38:50;;;;;;;3.92;0.60;;;15.40;99.90;;;;;;4361662;32;20503;-73
2021/08/31 06:41:16;;;;;;;0.75;0.75;;;15.40;99.90;;;;;;4364315;32;20091;-73
2021/08/31 06:43:44;;;;;;;1.05;0.60;;;15.40;99.90;;;;;;4368171;32;20086;-73
2021/08/31 06:46:10;;;;;;;0.52;0.52;;;15.40;99.90;;;;;;4372111;32;20074;-73
2021/08/31 06:48:35;;;;;;;1.67;1.05;;;15.50;99.90;;;;;;4365182;32;20090;-73
2021/08/31 06:51:02;;;;;;;0.82;0.82;;;15.50;99.90;;;;;;4363825;32;20078;-73
2021/08/31 06:53:27;;;;;;;0.55;0.52;;;15.50;99.90;;;;;;4362225;32;20117;-73
2021/08/31 06:55:53;;;;;;;0.65;0.65;;;15.40;99.90;;;;;;4365373;32;20097;-72
2021/08/31 06:58:19;;;;;;;0.57;0.57;;;15.50;99.90;;;;;;4365422;32;20118;-72
2021/08/31 07:00:44;;;;;;;0.32;0.32;;;15.50;99.90;;;;;;4368402;32;20103;-72
2021/08/31 07:03:10;;;;;;;0.50;0.50;;;15.40;99.90;;;;;;4375276;32;20090;-72
2021/08/31 07:05:35;;;;;;;1.20;0.90;;;15.40;99.90;;;;;;4372287;32;20724;-72
2021/08/31 07:08:01;;;;;;;0.50;0.50;;;15.40;99.90;;;;;;4368302;32;20066;-73
2021/08/31 07:10:26;;;;;;;0.50;0.50;;;15.40;99.90;;;;;;4371383;32;20163;-73
2021/08/31 07:12:52;;;;;;;0.50;0.50;;;15.50;99.90;;;;;;4369815;32;20062;-73
2021/08/31 07:15:18;;;;;;;0.50;0.50;;;15.50;99.90;;;;;;4369440;32;20067;-72
2021/08/31 07:17:43;;;;;;;0.80;0.60;;;15.50;99.90;;;;;;4369738;32;20082;-72
2021/08/31 07:20:09;;;;;;;2.00;1.12;;;15.60;99.90;;;;;;4371963;32;20090;-72
2021/08/31 07:22:35;;;;;;;0.50;0.50;;;15.60;99.90;;;;;;4371165;32;20078;-73
2021/08/31 07:25:00;;;;;;;0.57;0.57;;;15.60;99.90;;;;;;4371144;32;20373;-72
2021/08/31 07:27:26;;;;;;;1.05;0.32;;;15.70;99.90;;;;;;4373707;32;20110;-72
2021/08/31 07:29:51;;;;;;;0.40;0.40;;;15.80;99.90;;;;;;4372448;32;20067;-73
2021/08/31 07:32:17;;;;;;;0.50;0.50;;;15.80;99.90;;;;;;4374841;32;20083;-73
2021/08/31 07:34:43;;;;;;;1.00;0.55;;;15.90;99.90;;;;;;4370441;32;20088;-72
2021/08/31 07:37:08;;;;;;;1.37;0.70;;;16.00;99.90;;;;;;4369900;32;20700;-73
2021/08/31 07:39:35;;;;;;;2.72;0.95;;;16.10;99.90;;;;;;4373345;32;20066;-73
2021/08/31 07:42:01;;;;;;;0.52;0.52;;;16.20;99.90;;;;;;4372128;32;20082;-73
2021/08/31 07:44:27;;;;;;;0.43;0.43;;;16.30;99.90;;;;;;4372775;32;20082;-73
2021/08/31 07:46:53;;;;;;;0.43;0.43;;;16.30;99.90;;;;;;4374409;32;20527;-73
2021/08/31 07:49:19;;;;;;;2.45;0.60;;;16.40;99.90;;;;;;4369396;32;20083;-73
2021/08/31 07:51:45;;;;;;;1.17;0.62;;;16.50;99.90;;;;;;4365064;32;20503;-73
2021/08/31 07:54:12;;;;;;;0.28;0.28;;;16.60;99.90;;;;;;4359763;32;20082;-72
2021/08/31 07:56:38;;;;;;;0.60;0.60;;;16.80;99.90;;;;;;4358707;32;20078;-72
2021/08/31 07:59:05;;;;;;;0.40;0.40;;;16.80;99.90;;;;;;4366346;32;20129;-72
2021/08/31 08:01:31;;;;;;;3.40;0.80;;;16.90;99.90;;;;;;4366324;32;20074;-72
2021/08/31 08:03:57;;;;;;;0.37;0.37;;;17.10;99.90;;;;;;4367574;32;20070;-72
2021/08/31 08:06:23;;;;;;;3.20;0.70;;;17.10;99.90;;;;;;4366956;32;22169;-73
2021/08/31 08:08:48;;;;;;;0.40;0.40;;;17.20;99.90;;;;;;4363939;32;20082;-73
2021/08/31 08:11:14;;;;;;;0.50;0.50;;;17.10;99.90;;;;;;4365908;32;20131;-74
2021/08/31 08:13:39;;;;;;;0.47;0.47;;;17.20;99.90;;;;;;4368811;32;20070;-73
2021/08/31 08:16:05;;;;;;;0.52;0.52;;;17.30;99.90;;;;;;4366144;32;20082;-74
2021/08/31 08:18:30;;;;;;;0.68;0.60;;;17.30;99.90;;;;;;4369637;32;20528;-74
2021/08/31 08:20:56;;;;;;;0.35;0.35;;;17.40;99.90;;;;;;4366093;32;20242;-74
2021/08/31 08:23:22;;;;;;;0.45;0.43;;;17.50;99.90;;;;;;4367835;32;20126;-74
2021/08/31 08:25:48;;;;;;;0.60;0.60;;;17.60;99.90;;;;;;4367485;32;20058;-74
2021/08/31 08:28:13;;;;;;;2.65;0.47;;;17.70;99.90;;;;;;4366665;32;20096;-74
2021/08/31 08:30:39;;;;;;;0.30;0.30;;;17.70;99.90;;;;;;4366662;32;20406;-74
2021/08/31 08:33:04;;;;;;;0.75;0.40;;;17.70;99.90;;;;;;4368399;32;20373;-74
2021/08/31 08:35:30;;;;;;;0.82;0.82;;;17.70;99.90;;;;;;4366436;32;20090;-74
2021/08/31 08:37:57;;;;;;;0.50;0.50;;;17.70;99.90;;;;;;4366388;32;20134;-74
2021/08/31 08:40:24;;;;;;;0.43;0.43;;;17.60;99.90;;;;;;4366543;32;20075;-74
2021/08/31 08:42:53;;;;;;;0.55;0.52;;;17.60;99.90;;;;;;4362530;32;20426;-74
2021/08/31 08:45:20;;;;;;;0.50;0.50;;;17.70;99.90;;;;;;4364639;32;20911;-74
2021/08/31 08:47:46;;;;;;;0.47;0.47;;;17.70;99.90;;;;;;4365019;32;20160;-74
2021/08/31 08:50:12;;;;;;;1.50;0.40;;;17.80;99.90;;;;;;4363337;32;20070;-74
2021/08/31 08:52:38;;;;;;;0.45;0.28;;;17.80;99.90;;;;;;4363060;32;20191;-74
2021/08/31 08:55:09;;;;;;;0.40;0.40;;;17.80;99.90;;;;;;4365574;32;20091;-74
2021/08/31 08:57:35;;;;;;;0.32;0.32;;;17.80;99.90;;;;;;4364996;32;20075;-75
2021/08/31 09:00:01;;;;;;;0.40;0.40;;;17.80;99.90;;;;;;4365372;32;20527;-74
2021/08/31 09:02:37;;;;;;;1.95;0.55;;;17.80;99.90;;;;;;4368878;32;20452;-74
2021/08/31 09:05:05;;;;;;;0.77;0.70;;;17.80;99.90;;;;;;4366107;32;20513;-73
2021/08/31 09:07:36;;;;;;;0.30;0.30;;;17.90;99.90;;;;;;4366774;32;20103;-73
2021/08/31 09:10:19;;;;;;;;;;;18.10;99.90;;;;;;4365771;32;20080;-72
2021/08/31 09:12:47;;;;;;;0.57;0.57;;;18.10;99.90;;;;;;4365116;32;20308;-72
2021/08/31 09:15:23;;;;;;;0.75;0.43;;;18.20;99.90;;;;;;4367327;32;20149;-72
2021/08/31 09:18:07;;;;;;;0.30;0.30;;;18.30;99.90;;;;;;4367234;32;20102;-74
2021/08/31 09:20:35;;;;;;;0.50;0.50;;;18.30;99.90;;;;;;4361288;32;20122;-72
2021/08/31 09:23:02;;;;;;;0.47;0.47;;;18.40;99.90;;;;;;4366873;32;20086;-72
2021/08/31 09:25:45;;;;;;;0.90;0.52;;;18.50;99.90;;;;;;4364951;32;20082;-73
2021/08/31 09:28:32;;;;;;;0.85;0.60;;;18.40;99.90;;;;;;4370146;32;20426;-73
2021/08/31 09:31:19;;;;;;;1.37;0.62;;;18.50;99.90;;;;;;4364322;32;20436;-73
2021/08/31 09:33:49;;;;;;;1.12;0.77;;;18.60;99.90;;;;;;4370248;32;20437;-73
2021/08/31 09:36:18;;;;;;;0.52;0.52;;;18.70;99.90;;;;;;4363083;32;20538;-73
2021/08/31 09:39:02;;;;;;;0.28;0.28;;;18.90;99.90;;;;;;4370734;32;20436;-73
2021/08/31 09:41:31;;;;;;;0.82;0.68;;;18.90;99.90;;;;;;4370655;32;20087;-73
2021/08/31 09:43:58;;;;;;;0.73;0.60;;;18.90;99.90;;;;;;4371817;32;20078;-73
2021/08/31 09:46:24;;;;;;;0.68;0.68;;;19.00;99.90;;;;;;4371080;32;20098;-74
2021/08/31 09:48:50;;;;;;;0.57;0.55;;;19.10;99.90;;;;;;4364393;32;20564;-74
2021/08/31 09:51:16;;;;;;;0.22;0.22;;;19.30;99.90;;;;;;4370345;32;20059;-73
2021/08/31 09:53:42;;;;;;;0.30;0.30;;;19.40;99.90;;;;;;4368388;32;20110;-73
2021/08/31 09:56:09;;;;;;;1.27;0.40;;;19.50;99.90;;;;;;4370071;32;20063;-73
2021/08/31 09:58:37;;;;;;;0.60;0.60;;;19.50;99.90;;;;;;4369674;32;20095;-73
2021/08/31 10:01:04;;;;;;;0.70;0.70;;;19.50;99.90;;;;;;4368460;32;20448;-73
2021/08/31 10:03:30;;;;;;;0.73;0.70;;;19.50;99.90;;;;;;4371241;32;20128;-73
2021/08/31 10:05:59;;;;;;;0.30;0.30;;;19.40;99.90;;;;;;4369586;32;20058;-73
2021/08/31 10:08:25;;;;;;;0.65;0.65;;;19.50;99.90;;;;;;4367885;32;20079;-73
2021/08/31 10:10:52;;;;;;;0.70;0.52;;;19.50;99.90;;;;;;4369148;32;20532;-74
2021/08/31 10:13:20;;;;;;;0.30;0.30;;;19.50;99.90;;;;;;4371146;32;20087;-74
2021/08/31 10:15:48;;;;;;;0.30;0.30;;;19.50;99.90;;;;;;4370581;32;20086;-74
2021/08/31 10:18:15;;;;;;;0.95;0.50;;;19.50;99.90;;;;;;4368091;32;20166;-74
2021/08/31 10:20:47;;;;;;;0.80;0.40;;;19.50;99.90;;;;;;4370350;32;20497;-74
2021/08/31 10:23:15;;;;;;;0.37;0.37;;;19.40;99.90;;;;;;4372133;32;20527;-74
2021/08/31 10:25:41;;;;;;;2.08;0.85;;;19.40;99.90;;;;;;4373362;32;20066;-74
2021/08/31 10:28:28;;;;;;;0.57;0.57;;;19.30;99.90;;;;;;4373525;32;20058;-75
2021/08/31 10:30:56;;;;;;;0.50;0.50;;;19.40;99.90;;;;;;4363070;32;20082;-75
2021/08/31 10:33:31;;;;;;;0.73;0.68;;;19.30;99.90;;;;;;4377577;32;20079;-74
2021/08/31 10:35:57;;;;;;;0.73;0.57;;;19.20;99.90;;;;;;4371629;32;20059;-74
2021/08/31 10:38:42;;;;;;;1.02;0.52;;;19.20;99.90;;;;;;4373762;32;20543;-73
2021/08/31 10:41:30;;;;;;;1.62;0.70;;;19.20;99.90;;;;;;4374985;32;20459;-73
2021/08/31 10:43:56;;;;;;;0.20;0.20;;;19.40;99.90;;;;;;4363653;32;20121;-74
2021/08/31 10:46:22;;;;;;;0.50;0.50;;;19.40;99.90;;;;;;4373746;32;20179;-72
2021/08/31 10:49:03;;;;;;;0.65;0.62;;;19.40;99.90;;;;;;4372755;32;20071;-73
2021/08/31 10:51:28;;;;;;;;;;;19.60;99.90;;;;;;4371805;32;20101;-73
2021/08/31 10:53:54;;;;;;;0.20;0.20;;;19.70;99.90;;;;;;4373187;32;20037;-73
2021/08/31 10:56:22;;;;;;;0.40;0.37;;;19.80;99.90;;;;;;4368053;32;20192;-71
2021/08/31 10:58:52;;;;;;;0.50;0.47;;;20.00;99.90;;;;;;4367838;32;20129;-72
2021/08/31 11:01:20;;;;;;;0.75;0.65;;;19.90;99.90;;;;;;4369223;32;20538;-72
2021/08/31 11:03:47;;;;;;;1.45;0.47;;;19.70;99.90;;;;;;4366331;32;20106;-72
2021/08/31 11:06:16;;;;;;;0.30;0.30;;;19.60;99.90;;;;;;4367809;32;20059;-73
2021/08/31 11:08:42;;;;;;;0.40;0.40;;;19.60;99.90;;;;;;4369808;32;20569;-73
2021/08/31 11:11:17;;;;;;;0.40;0.40;;;19.80;99.90;;;;;;4371617;32;20050;-73
2021/08/31 11:13:54;;;;;;;0.37;0.37;;;20.20;99.90;;;;;;4372602;32;20353;-73
2021/08/31 11:16:24;;;;;;;1.65;0.43;;;20.40;99.90;;;;;;4368387;32;20102;-73
2021/08/31 11:18:50;;;;;;;0.50;0.50;;;20.40;99.90;;;;;;4370993;32;20555;-73
2021/08/31 11:21:15;;;;;;;0.30;0.30;;;20.30;99.90;;;;;;4370728;32;20075;-74
2021/08/31 11:23:41;;;;;;;0.43;0.40;;;20.30;99.90;;;;;;4369607;32;20082;-73
2021/08/31 11:26:06;;;;;;;0.37;0.28;;;20.10;99.90;;;;;;4372096;32;20087;-74
2021/08/31 11:28:33;;;;;;;0.30;0.30;;;20.00;99.90;;;;;;4369966;32;20094;-73
2021/08/31 11:31:19;;;;;;;0.43;0.43;;;19.90;99.90;;;;;;4369421;32;20110;-73
2021/08/31 11:33:46;;;;;;;0.37;0.37;;;19.90;99.90;;;;;;4368877;32;20178;-74
2021/08/31 11:36:14;;;;;;;0.40;0.40;;;20.00;99.90;;;;;;4370882;32;20062;-74
2021/08/31 11:38:42;;;;;;;0.30;0.30;;;20.40;99.90;;;;;;4368111;32;20062;-74
2021/08/31 11:41:30;;;;;;;0.25;0.25;;;20.70;99.90;;;;;;4369951;32;20083;-74
2021/08/31 11:44:01;;;;;;;0.30;0.30;;;20.80;99.90;;;;;;4358265;32;20183;-74
2021/08/31 11:46:28;;;;;;;;;;;20.90;99.90;;;;;;4367598;32;20148;-74
2021/08/31 11:49:12;;;;;;;0.30;0.30;;;21.30;99.90;;;;;;4370295;32;20208;-74
2021/08/31 11:51:39;;;;;;;2.40;0.70;;;21.80;99.90;;;;;;4369641;32;20149;-74
2021/08/31 11:54:11;;;;;;;4.60;1.05;;;21.70;99.90;;;;;;4369833;32;20191;-74
2021/08/31 11:56:38;;;;;;;9.80;0.32;;;21.50;99.90;;;;;;4368400;32;20066;-73
2021/08/31 11:59:04;;;;;;;0.30;0.30;;;21.10;99.90;;;;;;4368018;32;20058;-73
2021/08/31 12:01:31;;;;;;;0.75;0.73;;;20.90;99.90;;;;;;4366547;32;20090;-73
2021/08/31 12:04:18;;;;;;;0.40;0.40;;;20.90;99.90;;;;;;4370651;32;20552;-73
2021/08/31 12:06:47;;;;;;;0.30;0.30;;;20.90;99.90;;;;;;4361177;32;20079;-73
2021/08/31 12:09:16;;;;;;;0.30;0.30;;;21.00;99.90;;;;;;4371620;32;20433;-73
2021/08/31 12:11:42;;;;;;;0.70;0.40;;;21.10;99.90;;;;;;4369024;32;20074;-73
2021/08/31 12:14:07;;;;;;;0.43;0.43;;;21.20;99.90;;;;;;4372398;32;20051;-73
2021/08/31 12:16:33;;;;;;;0.20;0.20;;;21.30;99.90;;;;;;4368883;32;20157;-74
2021/08/31 12:19:14;;;;;;;1.37;0.75;;;21.40;99.90;;;;;;4367937;32;20067;-73
2021/08/31 12:21:39;;;;;;;;;;;21.80;99.90;;;;;;4369525;32;20066;-73
2021/08/31 12:24:13;;;;;;;0.25;0.25;;;22.00;99.90;;;;;;4370350;32;20292;-73
2021/08/31 12:26:38;;;;;;;0.30;0.25;;;22.20;99.90;;;;;;4372445;32;20086;-73
2021/08/31 12:29:07;;;;;;;0.10;0.10;;;22.70;99.90;;;;;;4370374;32;20102;-73
2021/08/31 12:31:33;;;;;;;0.25;0.20;;;23.00;99.90;;;;;;4374024;32;20062;-74
2021/08/31 12:34:00;;;;;;;0.25;0.20;;;23.40;99.90;;;;;;4375395;32;20082;-74
2021/08/31 12:36:31;;;;;;;0.10;0.10;;;23.40;99.90;;;;;;4378117;32;20602;-74
2021/08/31 12:38:58;;;;;;;2.78;0.20;;;23.10;99.90;;;;;;4378397;32;20058;-74
2021/08/31 12:41:26;;;;;;;0.32;0.20;;;23.10;99.90;;;;;;4375801;32;20837;-76
2021/08/31 12:43:59;;;;;;;0.25;0.25;;;23.40;99.90;;;;;;4375070;32;20131;-76
2021/08/31 12:46:29;;;;;;;0.25;0.25;;;23.30;99.90;;;;;;4378880;32;20078;-75